createdAt,value
2019-02-10T00:00:42.579Z,3.66
2019-02-10T00:03:11.609Z,3.44
2019-02-10T00:05:41.123Z,3.44
2019-02-10T00:08:11.005Z,3.56
2019-02-10T00:10:41.336Z,3.63
2019-02-10T00:13:35.323Z,3.47
2019-02-10T00:16:22.335Z,3.38
2019-02-10T00:18:52.122Z,3.26
2019-02-10T00:21:22.009Z,3.26
2019-02-10T00:23:51.688Z,3.34
2019-02-10T00:26:20.699Z,3.26
2019-02-10T00:28:50.646Z,3.26
2019-02-10T00:31:19.647Z,3.29
2019-02-10T00:33:48.532Z,3.26
2019-02-10T00:36:18.314Z,3.61
2019-02-10T00:38:48.152Z,3.61
2019-02-10T00:41:17.822Z,3.51
2019-02-10T00:43:47.646Z,3.66
2019-02-10T00:46:17.464Z,3.68
2019-02-10T00:48:47.440Z,3.72
2019-02-10T00:51:17.665Z,3.72
2019-02-10T00:53:46.763Z,3.54
2019-02-10T00:56:15.463Z,3.50
2019-02-10T00:58:45.567Z,3.57
2019-02-10T01:01:15.311Z,3.57
2019-02-10T01:03:45.050Z,3.57
2019-02-10T01:06:14.823Z,3.62
2019-02-10T01:08:44.672Z,3.46
2019-02-10T01:11:14.743Z,3.47
2019-02-10T01:13:44.881Z,3.55
2019-02-10T01:16:14.650Z,3.38
2019-02-10T01:19:09.052Z,3.13
2019-02-10T01:21:45.315Z,3.13
2019-02-10T01:24:15.050Z,3.05
2019-02-10T01:26:45.049Z,3.00
2019-02-10T01:29:15.047Z,3.07
2019-02-10T01:31:46.008Z,3.01
2019-02-10T01:34:15.603Z,2.96
2019-02-10T01:36:49.851Z,2.93
2019-02-10T01:39:18.336Z,2.92
2019-02-10T01:41:48.314Z,2.87
2019-02-10T01:44:18.511Z,2.88
2019-02-10T01:46:48.128Z,2.91
2019-02-10T01:49:17.846Z,3.42
2019-02-10T01:51:47.690Z,3.36
2019-02-10T01:54:17.319Z,3.18
2019-02-10T01:56:47.462Z,3.23
2019-02-10T01:59:17.512Z,3.11
2019-02-10T02:01:47.216Z,3.11
2019-02-10T02:04:17.015Z,3.12
2019-02-10T02:06:47.151Z,3.05
2019-02-10T02:09:16.662Z,3.02
2019-02-10T02:11:46.641Z,3.02
2019-02-10T02:14:15.558Z,3.08
2019-02-10T02:16:46.052Z,3.13
2019-02-10T02:19:15.644Z,3.13
2019-02-10T02:21:45.524Z,3.00
2019-02-10T02:24:15.539Z,3.10
2019-02-10T02:26:45.320Z,3.10
2019-02-10T02:29:14.934Z,3.08
2019-02-10T02:31:44.615Z,3.12
2019-02-10T02:34:14.107Z,3.36
2019-02-10T02:36:43.631Z,3.36
2019-02-10T02:39:13.517Z,3.32
2019-02-10T02:41:43.650Z,3.40
2019-02-10T02:44:13.452Z,3.40
2019-02-10T02:46:43.307Z,3.49
2019-02-10T02:49:12.796Z,3.49
2019-02-10T02:51:42.663Z,3.39
2019-02-10T02:54:11.870Z,3.44
2019-02-10T02:56:41.621Z,3.53
2019-02-10T02:59:10.840Z,3.72
2019-02-10T03:01:40.525Z,3.77
2019-02-10T03:04:10.095Z,3.83
2019-02-10T03:06:46.191Z,3.86
2019-02-10T03:09:16.527Z,3.86
2019-02-10T03:11:46.109Z,3.58
2019-02-10T03:14:17.064Z,3.58
2019-02-10T03:16:47.030Z,3.47
2019-02-10T03:19:16.979Z,3.45
2019-02-10T03:21:46.979Z,3.40
2019-02-10T03:24:16.581Z,3.43
2019-02-10T03:26:46.334Z,3.40
2019-02-10T03:29:15.921Z,3.40
2019-02-10T03:31:45.558Z,3.70
2019-02-10T03:34:15.040Z,3.92
2019-02-10T03:36:44.515Z,3.83
2019-02-10T03:39:14.030Z,3.68
2019-02-10T03:44:27.319Z,4.01
2019-02-10T03:46:56.638Z,3.95
2019-02-10T03:53:26.779Z,3.77
2019-02-10T03:55:56.578Z,3.68
2019-02-10T03:58:25.726Z,3.71
2019-02-10T04:00:54.979Z,3.79
2019-02-10T04:03:24.514Z,3.75
2019-02-10T04:05:54.179Z,3.63
2019-02-10T04:08:23.808Z,3.59
2019-02-10T04:10:53.319Z,3.62
2019-02-10T04:13:23.111Z,3.60
2019-02-10T04:15:53.166Z,3.61
2019-02-10T04:18:22.791Z,3.60
2019-02-10T04:20:52.632Z,3.64
2019-02-10T04:23:22.177Z,3.86
2019-02-10T04:25:51.839Z,3.86
2019-02-10T04:28:21.164Z,3.74
2019-02-10T04:30:51.319Z,3.66
2019-02-10T04:33:21.445Z,3.74
2019-02-10T04:35:51.123Z,3.66
2019-02-10T04:38:20.851Z,3.80
2019-02-10T04:40:50.635Z,3.74
2019-02-10T04:43:19.274Z,4.01
2019-02-10T04:45:48.833Z,3.91
2019-02-10T04:48:18.654Z,3.82
2019-02-10T04:50:47.486Z,3.86
2019-02-10T04:53:17.529Z,4.30
2019-02-10T04:56:14.437Z,4.06
2019-02-10T04:58:44.053Z,4.06
2019-02-10T05:01:13.795Z,4.00
2019-02-10T05:03:42.537Z,3.95
2019-02-10T05:06:12.520Z,4.33
2019-02-10T05:08:42.460Z,4.33
2019-02-10T05:11:12.108Z,4.50
2019-02-10T05:13:41.809Z,4.20
2019-02-10T05:16:11.521Z,4.04
2019-02-10T05:18:41.319Z,4.09
2019-02-10T05:21:12.177Z,4.09
2019-02-10T05:23:41.805Z,4.23
2019-02-10T05:26:11.496Z,4.06
2019-02-10T05:28:41.481Z,4.08
2019-02-10T05:31:10.693Z,4.04
2019-02-10T05:33:39.728Z,3.97
2019-02-10T05:36:08.293Z,3.92
2019-02-10T05:38:37.825Z,3.92
2019-02-10T05:41:07.644Z,3.98
2019-02-10T05:43:37.429Z,3.96
2019-02-10T05:46:07.010Z,3.96
2019-02-10T05:48:36.630Z,3.93
2019-02-10T05:51:06.135Z,3.82
2019-02-10T05:53:35.808Z,3.82
2019-02-10T05:56:05.541Z,3.87
2019-02-10T05:58:35.335Z,3.95
2019-02-10T06:02:27.761Z,3.86
2019-02-10T06:05:03.027Z,3.81
2019-02-10T06:07:32.972Z,3.80
2019-02-10T06:10:02.895Z,3.77
2019-02-10T06:12:33.014Z,3.75
2019-02-10T06:15:03.021Z,3.72
2019-02-10T06:17:33.835Z,3.88
2019-02-10T06:20:05.661Z,3.80
2019-02-10T06:22:34.621Z,3.79
2019-02-10T06:25:03.483Z,3.84
2019-02-10T06:27:33.520Z,3.84
2019-02-10T06:30:03.071Z,3.83
2019-02-10T06:32:33.042Z,3.79
2019-02-10T06:35:03.321Z,3.84
2019-02-10T06:37:33.022Z,3.87
2019-02-10T06:40:02.802Z,3.88
2019-02-10T06:42:32.642Z,3.90
2019-02-10T06:45:02.060Z,3.85
2019-02-10T06:47:32.531Z,3.85
2019-02-10T06:50:02.551Z,3.98
2019-02-10T06:52:32.660Z,3.98
2019-02-10T06:55:01.811Z,4.20
2019-02-10T06:57:31.684Z,4.23
2019-02-10T07:00:29.785Z,4.27
2019-02-10T07:03:49.575Z,4.85
2019-02-10T07:06:19.119Z,4.50
2019-02-10T07:08:48.879Z,4.50
2019-02-10T07:11:18.620Z,5.09
2019-02-10T07:13:53.423Z,4.72
2019-02-10T07:16:48.644Z,4.88
2019-02-10T07:20:03.107Z,4.88
2019-02-10T07:24:01.952Z,5.06
2019-02-10T07:26:55.835Z,4.95
2019-02-10T07:30:47.330Z,5.10
2019-02-10T07:34:27.032Z,5.23
2019-02-10T07:38:10.995Z,5.33
2019-02-10T07:41:43.320Z,5.38
2019-02-10T07:45:16.463Z,5.42
2019-02-10T07:48:25.486Z,5.50
2019-02-10T07:51:31.827Z,5.61
2019-02-10T07:55:34.655Z,5.61
2019-02-10T07:58:40.668Z,5.74
2019-02-10T08:02:05.768Z,5.95
2019-02-10T08:06:05.598Z,6.06
2019-02-10T08:09:19.269Z,6.30
2019-02-10T08:12:57.677Z,6.49
2019-02-10T08:16:17.852Z,6.74
2019-02-10T08:20:32.817Z,7.15
2019-02-10T08:23:52.833Z,7.36
2019-02-10T08:27:23.149Z,8.02
2019-02-10T08:30:50.544Z,8.40
2019-02-10T08:34:07.435Z,8.81
2019-02-10T08:37:52.993Z,9.47
2019-02-10T08:41:04.362Z,9.47
2019-02-10T08:45:37.605Z,9.97
2019-02-10T08:49:17.849Z,10.92
2019-02-10T08:52:35.058Z,10.92
2019-02-10T08:55:05.320Z,11.01
2019-02-10T08:57:34.981Z,10.75
2019-02-10T09:00:05.638Z,10.63
2019-02-10T09:02:34.657Z,10.56
2019-02-10T09:05:04.827Z,10.48
2019-02-10T09:07:35.519Z,10.55
2019-02-10T09:10:43.037Z,10.54
2019-02-10T09:13:13.171Z,10.54
2019-02-10T09:15:42.848Z,10.70
2019-02-10T09:18:12.807Z,10.56
2019-02-10T09:20:42.512Z,10.58
2019-02-10T09:23:12.490Z,10.87
2019-02-10T09:25:42.319Z,11.11
2019-02-10T09:28:13.470Z,11.11
2019-02-10T09:30:43.430Z,11.53
2019-02-10T09:33:12.733Z,11.97
2019-02-10T09:35:41.752Z,11.97
2019-02-10T09:38:10.720Z,12.04
2019-02-10T09:44:26.859Z,12.31
2019-02-10T09:46:56.858Z,12.39
2019-02-10T09:49:29.447Z,12.48
2019-02-10T09:51:59.185Z,12.81
2019-02-10T09:54:29.367Z,12.82
2019-02-10T09:56:59.369Z,13.04
2019-02-10T09:59:29.320Z,13.35
2019-02-10T10:01:59.092Z,13.13
2019-02-10T10:04:29.457Z,13.40
2019-02-10T10:07:00.870Z,13.37
2019-02-10T10:09:30.819Z,13.37
2019-02-10T10:12:00.868Z,13.80
2019-02-10T10:14:31.198Z,14.20
2019-02-10T10:17:01.464Z,14.38
2019-02-10T10:19:31.344Z,14.38
2019-02-10T10:22:01.717Z,14.38
2019-02-10T10:28:36.340Z,14.68
2019-02-10T10:31:06.423Z,14.87
2019-02-10T10:33:36.245Z,15.45
2019-02-10T10:36:06.009Z,15.94
2019-02-10T10:38:35.921Z,16.26
2019-02-10T10:41:05.876Z,16.55
2019-02-10T10:43:35.816Z,16.70
2019-02-10T10:46:05.520Z,16.65
2019-02-10T10:48:35.304Z,16.77
2019-02-10T10:51:05.102Z,16.76
2019-02-10T10:53:34.917Z,16.92
2019-02-10T10:56:05.071Z,16.49
2019-02-10T10:58:35.525Z,17.04
2019-02-10T11:01:05.580Z,18.10
2019-02-10T11:03:35.656Z,18.03
2019-02-10T11:06:04.569Z,18.03
2019-02-10T11:08:34.284Z,17.69
2019-02-10T11:11:04.310Z,17.12
2019-02-10T11:13:35.325Z,17.11
2019-02-10T11:16:05.916Z,17.34
2019-02-10T11:18:36.049Z,17.05
2019-02-10T11:21:09.130Z,16.75
2019-02-10T11:23:39.039Z,16.52
2019-02-10T11:26:09.143Z,16.43
2019-02-10T11:28:39.315Z,16.33
2019-02-10T11:31:09.307Z,16.59
2019-02-10T11:33:39.309Z,16.82
2019-02-10T11:36:09.310Z,16.88
2019-02-10T11:38:38.865Z,17.06
2019-02-10T11:41:09.160Z,17.19
2019-02-10T11:43:39.320Z,17.27
2019-02-10T11:46:10.307Z,17.40
2019-02-10T11:48:40.105Z,17.68
2019-02-10T11:51:10.134Z,17.86
2019-02-10T11:53:39.834Z,17.65
2019-02-10T11:56:09.606Z,16.88
2019-02-10T11:58:39.002Z,16.63
2019-02-10T12:01:09.436Z,16.46
2019-02-10T12:03:39.328Z,16.32
2019-02-10T12:06:09.295Z,16.56
2019-02-10T12:08:39.046Z,16.74
2019-02-10T12:11:09.352Z,16.91
2019-02-10T12:13:40.457Z,16.72
2019-02-10T12:16:10.097Z,16.51
2019-02-10T12:18:39.828Z,16.20
2019-02-10T12:21:10.459Z,16.08
2019-02-10T12:23:40.306Z,16.20
2019-02-10T12:26:10.313Z,16.20
2019-02-10T12:28:39.960Z,16.47
2019-02-10T12:31:09.825Z,16.70
2019-02-10T12:33:40.313Z,16.39
2019-02-10T12:36:10.112Z,16.01
2019-02-10T12:38:39.985Z,15.99
2019-02-10T12:41:10.054Z,15.95
2019-02-10T12:43:40.313Z,15.91
2019-02-10T12:46:10.115Z,15.59
2019-02-10T12:48:40.146Z,15.50
2019-02-10T12:51:10.325Z,15.60
2019-02-10T12:53:40.411Z,15.55
2019-02-10T12:56:10.671Z,15.21
2019-02-10T12:58:39.485Z,15.12
2019-02-10T13:01:09.387Z,14.97
2019-02-10T13:03:39.494Z,14.97
2019-02-10T13:06:09.742Z,14.75
2019-02-10T13:09:16.320Z,14.49
2019-02-10T13:11:46.574Z,14.36
2019-02-10T13:14:15.576Z,14.06
2019-02-10T13:16:46.372Z,13.39
2019-02-10T13:19:16.004Z,13.07
2019-02-10T13:21:46.115Z,12.89
2019-02-10T13:24:16.562Z,12.77
2019-02-10T13:26:45.843Z,12.37
2019-02-10T13:29:16.793Z,12.37
2019-02-10T13:31:46.839Z,12.15
2019-02-10T13:34:17.985Z,12.11
2019-02-10T13:36:48.120Z,11.76
2019-02-10T13:39:19.545Z,11.52
2019-02-10T13:41:46.652Z,11.39
2019-02-10T13:44:15.677Z,11.32
2019-02-10T13:46:45.339Z,11.22
2019-02-10T13:49:15.182Z,11.22
2019-02-10T13:51:45.321Z,11.12
2019-02-10T13:54:15.320Z,11.04
2019-02-10T13:56:45.317Z,10.84
2019-02-10T13:59:15.177Z,10.87
2019-02-10T14:01:45.478Z,10.88
2019-02-10T14:04:16.312Z,11.04
2019-02-10T14:06:46.324Z,11.03
2019-02-10T14:09:16.321Z,10.97
2019-02-10T14:11:46.320Z,10.96
2019-02-10T14:14:16.134Z,11.09
2019-02-10T14:16:46.438Z,11.01
2019-02-10T14:19:16.580Z,10.95
2019-02-10T14:21:45.756Z,10.85
2019-02-10T14:24:15.837Z,10.67
2019-02-10T14:26:45.830Z,10.58
2019-02-10T14:29:15.789Z,10.37
2019-02-10T14:31:45.760Z,10.39
2019-02-10T14:34:15.907Z,10.26
2019-02-10T14:36:46.263Z,10.14
2019-02-10T14:39:16.489Z,10.12
2019-02-10T14:41:45.537Z,10.12
2019-02-10T14:44:16.459Z,9.91
2019-02-10T14:46:46.159Z,9.91
2019-02-10T14:49:15.826Z,9.88
2019-02-10T14:51:46.061Z,9.85
2019-02-10T14:54:16.136Z,9.85
2019-02-10T14:56:46.424Z,9.85
2019-02-10T14:59:16.831Z,9.82
2019-02-10T15:01:46.533Z,9.71
2019-02-10T15:04:16.409Z,9.50
2019-02-10T15:06:47.141Z,9.50
2019-02-10T15:09:16.905Z,9.48
2019-02-10T15:11:46.848Z,9.53
2019-02-10T15:14:18.839Z,9.48
2019-02-10T15:16:48.647Z,9.48
2019-02-10T15:19:17.882Z,9.45
2019-02-10T15:21:47.991Z,9.37
2019-02-10T15:24:17.802Z,9.39
2019-02-10T15:26:48.116Z,9.41
2019-02-10T15:29:17.814Z,9.40
2019-02-10T15:31:47.642Z,9.41
2019-02-10T15:34:17.147Z,9.38
2019-02-10T15:36:47.117Z,9.18
2019-02-10T15:39:17.140Z,9.07
2019-02-10T15:41:46.890Z,8.87
2019-02-10T15:45:23.070Z,8.79
2019-02-10T15:47:53.321Z,8.80
2019-02-10T15:50:23.138Z,8.67
2019-02-10T15:52:53.156Z,8.57
2019-02-10T15:55:23.131Z,8.55
2019-02-10T15:57:53.320Z,8.46
2019-02-10T16:00:25.116Z,8.50
2019-02-10T16:02:55.104Z,8.47
2019-02-10T16:05:25.000Z,8.49
2019-02-10T16:07:54.875Z,8.43
2019-02-10T16:10:25.119Z,8.46
2019-02-10T16:12:55.596Z,8.37
2019-02-10T16:15:24.841Z,8.33
2019-02-10T16:17:54.968Z,8.33
2019-02-10T16:20:25.250Z,8.35
2019-02-10T16:22:55.851Z,8.35
2019-02-10T16:25:25.562Z,8.35
2019-02-10T16:27:54.702Z,8.29
2019-02-10T16:30:24.528Z,8.35
2019-02-10T16:32:54.537Z,8.40
2019-02-10T16:35:23.649Z,8.40
2019-02-10T16:37:52.883Z,8.40
2019-02-10T16:40:22.961Z,8.34
2019-02-10T16:42:52.886Z,8.26
2019-02-10T16:45:23.344Z,8.13
2019-02-10T16:47:53.880Z,8.09
2019-02-10T16:50:24.047Z,8.10
2019-02-10T16:52:54.852Z,8.13
2019-02-10T16:55:25.115Z,7.98
2019-02-10T16:57:55.322Z,8.06
2019-02-10T17:00:26.942Z,8.02
2019-02-10T17:02:57.706Z,7.96
2019-02-10T17:05:28.114Z,7.95
2019-02-10T17:07:58.308Z,7.96
2019-02-10T17:10:28.541Z,7.99
2019-02-10T17:12:58.597Z,7.98
2019-02-10T17:15:29.284Z,7.86
2019-02-10T17:17:59.662Z,7.84
2019-02-10T17:20:28.625Z,7.82
2019-02-10T17:22:58.479Z,7.83
2019-02-10T17:25:27.939Z,7.81
2019-02-10T17:27:58.748Z,7.88
2019-02-10T17:30:28.515Z,7.78
2019-02-10T17:32:58.595Z,7.78
2019-02-10T17:35:28.366Z,7.86
2019-02-10T17:37:58.556Z,7.86
2019-02-10T17:40:53.508Z,7.78
2019-02-10T17:43:28.887Z,7.78
2019-02-10T17:45:58.906Z,7.66
2019-02-10T17:48:28.955Z,7.58
2019-02-10T17:50:58.929Z,7.39
2019-02-10T17:53:29.420Z,6.95
2019-02-10T17:55:59.660Z,5.95
2019-02-10T17:58:28.852Z,5.95
2019-02-10T18:01:20.963Z,5.64
2019-02-10T18:03:50.839Z,5.56
2019-02-10T18:06:21.089Z,5.53
2019-02-10T18:08:51.112Z,5.50
2019-02-10T18:11:21.446Z,5.33
2019-02-10T18:13:51.319Z,5.42
2019-02-10T18:16:41.890Z,5.42
2019-02-10T18:19:34.868Z,5.37
2019-02-10T18:22:30.520Z,5.39
2019-02-10T18:25:22.228Z,5.37
2019-02-10T18:28:10.048Z,5.31
2019-02-10T18:31:19.425Z,5.33
2019-02-10T18:34:13.862Z,5.19
2019-02-10T18:37:05.700Z,5.71
2019-02-10T18:39:57.654Z,5.55
2019-02-10T18:42:38.961Z,5.31
2019-02-10T18:45:17.310Z,5.18
2019-02-10T18:47:53.696Z,5.10
2019-02-10T18:50:42.784Z,5.04
2019-02-10T18:53:26.364Z,5.01
2019-02-10T18:56:11.572Z,4.92
2019-02-10T18:58:54.402Z,4.87
2019-02-10T19:01:35.443Z,4.78
2019-02-10T19:04:33.690Z,4.86
2019-02-10T19:07:34.432Z,4.86
2019-02-10T19:10:15.321Z,4.87
2019-02-10T19:13:04.315Z,4.87
2019-02-10T19:15:47.185Z,4.91
2019-02-10T19:18:45.525Z,4.91
2019-02-10T19:21:33.037Z,4.95
2019-02-10T19:24:31.306Z,4.98
2019-02-10T19:27:22.776Z,4.94
2019-02-10T19:30:14.748Z,5.00
2019-02-10T19:32:49.689Z,4.96
2019-02-10T19:35:38.860Z,4.99
2019-02-10T19:38:30.641Z,4.98
2019-02-10T19:41:10.051Z,5.00
2019-02-10T19:43:55.849Z,5.00
2019-02-10T19:46:41.500Z,5.04
2019-02-10T19:49:46.058Z,5.05
2019-02-10T19:52:44.553Z,5.05
2019-02-10T19:55:20.562Z,4.95
2019-02-10T19:58:03.702Z,4.93
2019-02-10T20:00:43.272Z,4.81
2019-02-10T20:03:31.329Z,4.83
2019-02-10T20:06:19.322Z,4.74
2019-02-10T20:09:26.211Z,4.89
2019-02-10T20:12:04.433Z,4.73
2019-02-10T20:14:42.256Z,4.81
2019-02-10T20:17:37.122Z,4.85
2019-02-10T20:20:28.516Z,4.81
2019-02-10T20:23:10.034Z,4.84
2019-02-10T20:25:59.504Z,4.84
2019-02-10T20:28:57.584Z,4.99
2019-02-10T20:31:57.774Z,5.22
2019-02-10T20:34:43.686Z,5.37
2019-02-10T20:37:21.486Z,5.52
2019-02-10T20:40:22.093Z,5.48
2019-02-10T20:43:29.526Z,5.42
2019-02-10T20:46:27.698Z,5.12
2019-02-10T20:49:22.017Z,5.12
2019-02-10T20:52:03.018Z,5.18
2019-02-10T20:54:50.637Z,5.10
2019-02-10T20:57:38.411Z,5.09
2019-02-10T21:00:18.504Z,4.99
2019-02-10T21:03:06.981Z,4.99
2019-02-10T21:06:02.673Z,5.17
2019-02-10T21:08:38.560Z,4.90
2019-02-10T21:11:26.432Z,4.84
2019-02-10T21:14:14.678Z,4.70
2019-02-10T21:17:10.312Z,4.70
2019-02-10T21:20:05.949Z,4.55
2019-02-10T21:22:45.535Z,4.39
2019-02-10T21:25:35.327Z,4.19
2019-02-10T21:28:24.609Z,4.19
2019-02-10T21:31:20.027Z,4.11
2019-02-10T21:34:11.453Z,4.08
2019-02-10T21:37:09.067Z,4.00
2019-02-10T21:40:07.544Z,3.78
2019-02-10T21:43:02.926Z,3.62
2019-02-10T21:45:44.634Z,3.62
2019-02-10T21:48:21.017Z,3.64
2019-02-10T21:50:50.798Z,3.59
2019-02-10T21:53:20.665Z,3.69
2019-02-10T21:55:50.550Z,3.67
2019-02-10T21:58:19.552Z,3.74
2019-02-10T22:00:48.311Z,3.79
2019-02-10T22:03:18.060Z,3.87
2019-02-10T22:05:47.871Z,3.86
2019-02-10T22:08:18.073Z,3.84
2019-02-10T22:10:48.040Z,3.79
2019-02-10T22:13:17.842Z,3.80
2019-02-10T22:15:47.361Z,3.82
2019-02-10T22:18:17.020Z,3.75
2019-02-10T22:20:46.645Z,3.75
2019-02-10T22:23:16.665Z,3.70
2019-02-10T22:25:46.110Z,3.70
2019-02-10T22:28:15.630Z,3.75
2019-02-10T22:30:45.165Z,3.89
2019-02-10T22:33:14.665Z,3.89
2019-02-10T22:35:44.251Z,3.93
2019-02-10T22:38:13.672Z,3.93
2019-02-10T22:40:42.794Z,4.03
2019-02-10T22:43:12.329Z,4.03
2019-02-10T22:45:42.017Z,3.94
2019-02-10T22:48:13.674Z,4.06
2019-02-10T22:50:42.984Z,4.17
2019-02-10T22:53:12.547Z,4.19
2019-02-10T22:55:41.274Z,4.23
2019-02-10T22:58:10.957Z,4.18
2019-02-10T23:00:54.513Z,4.22
2019-02-10T23:06:20.804Z,4.30
2019-02-10T23:08:50.320Z,4.29
2019-02-10T23:11:19.648Z,4.25
2019-02-10T23:13:48.840Z,4.28
2019-02-10T23:16:18.687Z,4.25
2019-02-10T23:18:47.488Z,4.29
2019-02-10T23:21:16.942Z,4.17
2019-02-10T23:23:46.441Z,4.17
2019-02-10T23:26:16.006Z,4.21
2019-02-10T23:28:45.774Z,4.20
2019-02-10T23:31:15.404Z,4.18
2019-02-10T23:33:45.140Z,4.13
2019-02-10T23:36:15.056Z,4.25
2019-02-10T23:38:45.006Z,4.21
2019-02-10T23:41:14.321Z,4.31
2019-02-10T23:43:44.189Z,4.34
2019-02-10T23:46:14.639Z,4.37
2019-02-10T23:48:44.333Z,4.19
2019-02-10T23:51:14.323Z,4.19
2019-02-10T23:53:44.028Z,4.08
2019-02-10T23:56:14.091Z,4.11
2019-02-10T23:58:44.125Z,4.07
